Yahotyn, Ukraine

10:19 PM EEST on September 01, 2014 (GMT +0300)
Mayorske | Change Station
CLOSE
Current Station
Personal Weather Station
Location: Baryshivka, Ukraine
Elevation: 325 ft
Nearby Weather Stations

Elev 325 ft 50.27 °N, 31.32 °E | Updated 4 minutes ago

Clear
Clear
59.0 °F
Feels Like 59.0 °F
N
0.0
Wind Variable Wind from North
Gusts 0.0 mph

Today
High -- | Low -- °F
--% Chance of Precip.
Yesterday
High -- | Low -- °F
Precip. -- in
6:07 AM 7:37 PM
Waxing Crescent, 43% visible
Pressure 29.98 in
Visibility -9999.0 miles
Clouds
Dew Point 54 °F
Humidity 82%
Rainfall 0.00 in
Snow Depth Not available.
UV Not available.
Pollen Not available.
Air Quality Not available.
Flu Activity Not available.
METAR UKBB 011900Z 00000MPS CAVOK 15/12 Q1015 18CLRD95 NOSIG

More Conditions Fewer Conditions

Pressure 29.98 in
Visibility -9999.0 miles
Clouds
Dew Point 54 °F
Humidity 82%
Rainfall 0.00 in
Snow Depth Not available.
UV Not available.
Pollen Not available.
Air Quality Not available.
Flu Activity Not available.
METAR UKBB 011900Z 00000MPS CAVOK 15/12 Q1015 18CLRD95 NOSIG

More Conditions Fewer Conditions

10-Day Weather Forecast

Almanac

Astronomy

Sep. 01, 2014 Rise Set
Actual Time 6:07 AM EEST 7:37 PM EEST
Civil Twilight 5:33 AM EEST 8:11 PM EEST
Nautical Twilight 4:51 AM EEST 8:52 PM EEST
Astronomical Twilight 4:06 AM EEST 9:37 PM EEST
Moon 1:12 PM EEST 10:42 PM EEST
Length of Visible Light 14h 38m
Length of Day
13h 30m
Tomorrow will be 3m 39s shorter.
Waxing Crescent, 43% of the Moon is Illuminated
Today
Waxing Crescent
Sep 2
First Quarter
Sep 8
Full
Sep 15
Last Quarter
Sep 24
New

Today's Extremes

Country Highs Country Lows

Community

WunderPhotos

Upload Photos

1,749,373 photos uploaded!

WunderBlogs® & News

Nearby

Snow Depth

Not available.

Earthquake Activity

City Distance Mag. Time & Date
No recent earthquake activity has been reported nearby.
Minimum magnitude displayed is 2.5.

Coastal Water Temperatures

Place Temperature
No Stations Reporting

Nearby Weather Stations